Pinebluff, North Carolina
Current Conditions -  °F | °C
As of 12:56 AM on Tuesday 27 Jan 2015 (Local Time) from KHFF Reporting Station
Overcast Overcast  
Wind Chill: 37°   Ceiling: 3500
Heat Index: 41°   Visibility: 10mi
Dew Point: 30°   Wind: 7mph
Humidity: 64%   Direction: 310°NW
Pressure: 29.73"   Gusts: 15mph
Location:  35.11°N, 79.47°W
Report Text: KHFF 270556Z AUTO 31006G13KT 10SM OVC035 05/M01 A2973 RMK AO2 LTG DSNT SE SLP071 T00511013 10075 20051 52006
Loading
Personal Weather Stations






























Interactive Weather Map New forecast layout! Learn more

10-Day Weather Forecast

Advertisements
Track Severe Weather on mobile